Tacloban, Philippines
Current Conditions -  °F | °C
As of 4:00 AM on Friday 28 Nov 2014 (Local Time) from RPVM Reporting Station
Scattered Clouds Scattered Clouds  
Wind Chill: 81°   Ceiling: Unl
Heat Index: 87°   Visibility: 6mi
Dew Point: 77°   Wind: 3mph
Humidity: 89%   Direction: 60°ENE
Pressure: 29.8"   Gusts: NA
Location:  11.29°N, 125.02°E
Report Text: RPVM 272000Z 06003KT 9999 FEW020 SCT300 27/25 Q1009 RMK A2980
Loading
Personal Weather Stations






























Interactive Weather Map New forecast layout! Learn more

10-Day Weather Forecast

Advertisements
Track Severe Weather on mobile